Main page
METAR-TAF:

METAR-TAF

Airports :

Kittilä Airport

Kittilä, Finland

latitude: 67-42N, longitude: 024-51E, elevation: 196 m

Current weather observation

The report was made 30 minutes ago, at 18:20 UTC
Wind 6 kt from the South
Temperature 23°C
Humidity 50%
Pressure 1013 hPa
Visibility 10 km or more
no clouds below 1500 m and no cumulonimbus

METAR: EFKT 231820Z AUTO 18006KT CAVOK 23/12 Q1013

Time: 21:50 (18:50 UTC)

Forecast

The report was made 1 hour and 22 minutes ago, at 17:28 UTC
Forecast valid from 23 at 18 UTC to 23 at 21 UTC
Wind 7 kt from the South
Visibility 10 km or more
no clouds below 1500 m and no cumulonimbus

TAF: EFKT 231728Z 2318/2321 18007KT CAVOK

Weather observations and forecasts of more than 4000 airports (METAR and TAF reports).

The available stations are represented by yellow and red dots on the map.

Hover mouse over dot to see the name of the station.

Then click to see weather observations and forecasts.

To change the map : click on the green buttons with a black cross to zoom in, on the green button with a dash to zoom out, or on the green arrows for adjacent maps.


METAR-TAF: